sensor_id;sensor_type;location;lat;lon;timestamp;P1;durP1;ratioP1;P2;durP2;ratioP2
2011;SDS011;1009;51.436;6.972;2023-10-19T00:00:05;5.90;;;3.70;;
2011;SDS011;1009;51.436;6.972;2023-10-19T00:02:46;5.30;;;3.33;;
2011;SDS011;1009;51.436;6.972;2023-10-19T00:05:19;4.83;;;3.33;;
2011;SDS011;1009;51.436;6.972;2023-10-19T00:07:47;7.37;;;4.80;;
2011;SDS011;1009;51.436;6.972;2023-10-19T00:10:16;6.60;;;3.60;;
2011;SDS011;1009;51.436;6.972;2023-10-19T00:12:44;5.00;;;3.67;;
2011;SDS011;1009;51.436;6.972;2023-10-19T00:15:15;6.30;;;4.53;;
2011;SDS011;1009;51.436;6.972;2023-10-19T00:17:47;7.93;;;4.27;;
2011;SDS011;1009;51.436;6.972;2023-10-19T00:20:18;6.03;;;4.10;;
2011;SDS011;1009;51.436;6.972;2023-10-19T00:23:02;6.60;;;4.30;;
2011;SDS011;1009;51.436;6.972;2023-10-19T00:25:32;6.70;;;4.70;;
2011;SDS011;1009;51.436;6.972;2023-10-19T00:28:01;5.77;;;4.67;;
2011;SDS011;1009;51.436;6.972;2023-10-19T00:30:30;6.80;;;4.33;;
2011;SDS011;1009;51.436;6.972;2023-10-19T00:33:01;5.03;;;3.80;;
2011;SDS011;1009;51.436;6.972;2023-10-19T00:35:43;9.50;;;4.00;;
2011;SDS011;1009;51.436;6.972;2023-10-19T00:38:22;5.57;;;4.27;;
2011;SDS011;1009;51.436;6.972;2023-10-19T00:41:18;5.87;;;4.00;;
2011;SDS011;1009;51.436;6.972;2023-10-19T00:43:49;5.17;;;4.10;;
2011;SDS011;1009;51.436;6.972;2023-10-19T00:46:22;7.00;;;4.00;;
2011;SDS011;1009;51.436;6.972;2023-10-19T00:48:57;5.47;;;3.77;;
2011;SDS011;1009;51.436;6.972;2023-10-19T00:51:28;7.33;;;4.03;;
2011;SDS011;1009;51.436;6.972;2023-10-19T00:54:08;6.10;;;4.20;;
2011;SDS011;1009;51.436;6.972;2023-10-19T00:56:41;11.40;;;4.80;;
2011;SDS011;1009;51.436;6.972;2023-10-19T00:59:13;5.50;;;4.63;;
2011;SDS011;1009;51.436;6.972;2023-10-19T01:01:46;6.40;;;4.23;;
2011;SDS011;1009;51.436;6.972;2023-10-19T01:04:18;7.07;;;4.50;;
2011;SDS011;1009;51.436;6.972;2023-10-19T01:06:48;5.53;;;4.73;;
2011;SDS011;1009;51.436;6.972;2023-10-19T01:09:29;6.80;;;4.40;;
2011;SDS011;1009;51.436;6.972;2023-10-19T01:12:01;5.27;;;4.30;;
2011;SDS011;1009;51.436;6.972;2023-10-19T01:14:47;7.17;;;4.87;;
2011;SDS011;1009;51.436;6.972;2023-10-19T01:17:28;6.17;;;3.90;;
2011;SDS011;1009;51.436;6.972;2023-10-19T01:19:56;5.27;;;4.20;;
2011;SDS011;1009;51.436;6.972;2023-10-19T01:22:24;5.10;;;4.30;;
2011;SDS011;1009;51.436;6.972;2023-10-19T01:24:53;7.47;;;4.50;;
2011;SDS011;1009;51.436;6.972;2023-10-19T01:27:20;5.80;;;4.07;;
2011;SDS011;1009;51.436;6.972;2023-10-19T01:29:47;8.80;;;4.97;;
2011;SDS011;1009;51.436;6.972;2023-10-19T01:32:17;5.83;;;4.33;;
2011;SDS011;1009;51.436;6.972;2023-10-19T01:34:43;5.90;;;4.37;;
2011;SDS011;1009;51.436;6.972;2023-10-19T01:37:10;7.20;;;4.23;;
2011;SDS011;1009;51.436;6.972;2023-10-19T01:39:37;9.20;;;6.37;;
2011;SDS011;1009;51.436;6.972;2023-10-19T01:42:08;7.10;;;4.07;;
2011;SDS011;1009;51.436;6.972;2023-10-19T01:44:34;7.93;;;5.20;;
2011;SDS011;1009;51.436;6.972;2023-10-19T01:47:01;5.10;;;3.90;;
2011;SDS011;1009;51.436;6.972;2023-10-19T01:49:30;6.00;;;4.67;;
2011;SDS011;1009;51.436;6.972;2023-10-19T01:51:57;6.80;;;4.30;;
2011;SDS011;1009;51.436;6.972;2023-10-19T01:54:23;5.17;;;4.10;;
2011;SDS011;1009;51.436;6.972;2023-10-19T01:56:51;6.20;;;4.37;;
2011;SDS011;1009;51.436;6.972;2023-10-19T01:59:21;6.80;;;3.77;;
2011;SDS011;1009;51.436;6.972;2023-10-19T02:01:52;6.80;;;4.27;;
2011;SDS011;1009;51.436;6.972;2023-10-19T02:04:18;8.27;;;4.90;;
2011;SDS011;1009;51.436;6.972;2023-10-19T02:06:46;8.10;;;5.00;;
2011;SDS011;1009;51.436;6.972;2023-10-19T02:09:13;4.90;;;3.97;;
2011;SDS011;1009;51.436;6.972;2023-10-19T02:11:47;4.80;;;3.63;;
2011;SDS011;1009;51.436;6.972;2023-10-19T02:14:14;4.90;;;3.93;;
2011;SDS011;1009;51.436;6.972;2023-10-19T02:16:43;6.20;;;3.80;;
2011;SDS011;1009;51.436;6.972;2023-10-19T02:19:12;6.80;;;4.53;;
2011;SDS011;1009;51.436;6.972;2023-10-19T02:21:39;5.77;;;4.30;;
2011;SDS011;1009;51.436;6.972;2023-10-19T02:24:06;3.10;;;2.80;;
2011;SDS011;1009;51.436;6.972;2023-10-19T02:26:33;6.63;;;4.23;;
2011;SDS011;1009;51.436;6.972;2023-10-19T02:29:02;5.30;;;3.70;;
2011;SDS011;1009;51.436;6.972;2023-10-19T02:31:32;5.97;;;3.93;;
2011;SDS011;1009;51.436;6.972;2023-10-19T02:34:00;5.13;;;3.03;;
2011;SDS011;1009;51.436;6.972;2023-10-19T02:36:27;3.27;;;2.70;;
2011;SDS011;1009;51.436;6.972;2023-10-19T02:38:55;3.93;;;2.97;;
2011;SDS011;1009;51.436;6.972;2023-10-19T02:41:24;5.07;;;3.47;;
2011;SDS011;1009;51.436;6.972;2023-10-19T02:43:52;2.73;;;1.73;;
2011;SDS011;1009;51.436;6.972;2023-10-19T02:46:26;2.37;;;1.73;;
2011;SDS011;1009;51.436;6.972;2023-10-19T02:48:53;3.10;;;2.30;;
2011;SDS011;1009;51.436;6.972;2023-10-19T02:51:21;6.07;;;2.43;;
2011;SDS011;1009;51.436;6.972;2023-10-19T02:53:48;2.30;;;1.90;;
2011;SDS011;1009;51.436;6.972;2023-10-19T02:56:15;4.13;;;1.93;;
2011;SDS011;1009;51.436;6.972;2023-10-19T02:58:43;3.27;;;1.73;;
2011;SDS011;1009;51.436;6.972;2023-10-19T03:01:14;2.70;;;1.97;;
2011;SDS011;1009;51.436;6.972;2023-10-19T03:03:44;2.53;;;1.90;;
2011;SDS011;1009;51.436;6.972;2023-10-19T03:06:11;2.33;;;2.10;;
2011;SDS011;1009;51.436;6.972;2023-10-19T03:08:39;1.90;;;1.43;;
2011;SDS011;1009;51.436;6.972;2023-10-19T03:11:05;3.00;;;1.90;;
2011;SDS011;1009;51.436;6.972;2023-10-19T03:13:34;3.70;;;2.30;;
2011;SDS011;1009;51.436;6.972;2023-10-19T03:16:00;2.60;;;1.50;;
2011;SDS011;1009;51.436;6.972;2023-10-19T03:18:32;2.30;;;1.70;;
2011;SDS011;1009;51.436;6.972;2023-10-19T03:20:58;5.23;;;1.70;;
2011;SDS011;1009;51.436;6.972;2023-10-19T03:23:25;3.30;;;2.40;;
2011;SDS011;1009;51.436;6.972;2023-10-19T03:25:56;3.10;;;2.10;;
2011;SDS011;1009;51.436;6.972;2023-10-19T03:28:37;3.33;;;2.50;;
2011;SDS011;1009;51.436;6.972;2023-10-19T03:31:05;8.03;;;3.20;;
2011;SDS011;1009;51.436;6.972;2023-10-19T03:33:33;3.87;;;2.80;;
2011;SDS011;1009;51.436;6.972;2023-10-19T03:36:01;4.57;;;3.00;;
2011;SDS011;1009;51.436;6.972;2023-10-19T03:38:29;6.37;;;2.60;;
2011;SDS011;1009;51.436;6.972;2023-10-19T03:41:00;4.77;;;2.73;;
2011;SDS011;1009;51.436;6.972;2023-10-19T03:43:32;3.87;;;2.93;;
2011;SDS011;1009;51.436;6.972;2023-10-19T03:46:01;4.30;;;2.70;;
2011;SDS011;1009;51.436;6.972;2023-10-19T03:48:32;5.03;;;2.57;;
2011;SDS011;1009;51.436;6.972;2023-10-19T03:51:03;3.40;;;2.40;;
2011;SDS011;1009;51.436;6.972;2023-10-19T03:53:30;3.47;;;2.17;;
2011;SDS011;1009;51.436;6.972;2023-10-19T03:55:58;3.10;;;2.00;;
2011;SDS011;1009;51.436;6.972;2023-10-19T03:58:26;2.87;;;2.53;;
2011;SDS011;1009;51.436;6.972;2023-10-19T04:00:54;3.33;;;1.50;;
2011;SDS011;1009;51.436;6.972;2023-10-19T04:03:26;2.80;;;1.80;;
2011;SDS011;1009;51.436;6.972;2023-10-19T04:05:55;3.00;;;1.53;;
2011;SDS011;1009;51.436;6.972;2023-10-19T04:08:25;3.60;;;1.67;;
2011;SDS011;1009;51.436;6.972;2023-10-19T04:10:53;3.03;;;1.70;;
2011;SDS011;1009;51.436;6.972;2023-10-19T04:13:35;2.57;;;1.30;;
2011;SDS011;1009;51.436;6.972;2023-10-19T04:16:02;2.10;;;1.33;;
2011;SDS011;1009;51.436;6.972;2023-10-19T04:18:29;2.43;;;1.33;;
2011;SDS011;1009;51.436;6.972;2023-10-19T04:20:56;2.00;;;1.60;;
2011;SDS011;1009;51.436;6.972;2023-10-19T04:23:24;2.83;;;1.77;;
2011;SDS011;1009;51.436;6.972;2023-10-19T04:25:54;2.83;;;1.60;;
2011;SDS011;1009;51.436;6.972;2023-10-19T04:28:23;2.03;;;1.67;;
2011;SDS011;1009;51.436;6.972;2023-10-19T04:31:00;2.10;;;1.57;;
2011;SDS011;1009;51.436;6.972;2023-10-19T04:33:28;2.23;;;1.63;;
2011;SDS011;1009;51.436;6.972;2023-10-19T04:35:55;1.43;;;1.10;;
2011;SDS011;1009;51.436;6.972;2023-10-19T04:38:25;3.23;;;1.50;;
2011;SDS011;1009;51.436;6.972;2023-10-19T04:40:52;4.57;;;1.70;;
2011;SDS011;1009;51.436;6.972;2023-10-19T04:43:18;8.57;;;2.20;;
2011;SDS011;1009;51.436;6.972;2023-10-19T04:45:46;2.03;;;1.27;;
2011;SDS011;1009;51.436;6.972;2023-10-19T04:48:14;3.43;;;1.57;;
2011;SDS011;1009;51.436;6.972;2023-10-19T04:50:41;4.17;;;1.50;;
2011;SDS011;1009;51.436;6.972;2023-10-19T04:53:08;3.43;;;1.37;;
2011;SDS011;1009;51.436;6.972;2023-10-19T04:55:35;3.33;;;1.80;;
2011;SDS011;1009;51.436;6.972;2023-10-19T04:58:01;2.50;;;1.27;;
2011;SDS011;1009;51.436;6.972;2023-10-19T05:00:28;2.40;;;1.63;;
2011;SDS011;1009;51.436;6.972;2023-10-19T05:02:55;3.80;;;1.40;;
2011;SDS011;1009;51.436;6.972;2023-10-19T05:05:24;2.80;;;1.60;;
2011;SDS011;1009;51.436;6.972;2023-10-19T05:07:50;1.90;;;1.30;;
2011;SDS011;1009;51.436;6.972;2023-10-19T05:10:17;5.17;;;1.97;;
2011;SDS011;1009;51.436;6.972;2023-10-19T05:12:44;4.33;;;1.90;;
2011;SDS011;1009;51.436;6.972;2023-10-19T05:15:11;2.60;;;1.70;;
2011;SDS011;1009;51.436;6.972;2023-10-19T05:17:38;2.83;;;1.60;;
2011;SDS011;1009;51.436;6.972;2023-10-19T05:20:05;2.77;;;1.57;;
2011;SDS011;1009;51.436;6.972;2023-10-19T05:22:35;1.77;;;1.33;;
2011;SDS011;1009;51.436;6.972;2023-10-19T05:25:02;4.30;;;1.50;;
2011;SDS011;1009;51.436;6.972;2023-10-19T05:27:29;1.87;;;1.20;;
2011;SDS011;1009;51.436;6.972;2023-10-19T05:29:57;2.70;;;1.20;;
2011;SDS011;1009;51.436;6.972;2023-10-19T05:32:24;3.13;;;1.30;;
2011;SDS011;1009;51.436;6.972;2023-10-19T05:34:51;1.93;;;1.13;;
2011;SDS011;1009;51.436;6.972;2023-10-19T05:37:17;3.40;;;1.70;;
2011;SDS011;1009;51.436;6.972;2023-10-19T05:39:46;2.03;;;1.47;;
2011;SDS011;1009;51.436;6.972;2023-10-19T05:42:12;3.60;;;1.57;;
2011;SDS011;1009;51.436;6.972;2023-10-19T05:44:39;3.23;;;0.93;;
2011;SDS011;1009;51.436;6.972;2023-10-19T05:47:06;4.80;;;1.73;;
2011;SDS011;1009;51.436;6.972;2023-10-19T05:49:33;2.07;;;1.37;;
2011;SDS011;1009;51.436;6.972;2023-10-19T05:52:00;2.70;;;1.47;;
2011;SDS011;1009;51.436;6.972;2023-10-19T05:54:28;1.63;;;0.97;;
2011;SDS011;1009;51.436;6.972;2023-10-19T05:56:56;4.40;;;1.10;;
2011;SDS011;1009;51.436;6.972;2023-10-19T05:59:23;1.50;;;1.00;;
2011;SDS011;1009;51.436;6.972;2023-10-19T06:01:51;3.97;;;1.30;;
2011;SDS011;1009;51.436;6.972;2023-10-19T06:04:18;1.43;;;1.07;;
2011;SDS011;1009;51.436;6.972;2023-10-19T06:06:45;2.80;;;1.53;;
2011;SDS011;1009;51.436;6.972;2023-10-19T06:09:12;4.43;;;1.70;;
2011;SDS011;1009;51.436;6.972;2023-10-19T06:11:40;1.30;;;1.07;;
2011;SDS011;1009;51.436;6.972;2023-10-19T06:14:09;2.20;;;1.27;;
2011;SDS011;1009;51.436;6.972;2023-10-19T06:16:36;4.80;;;1.43;;
2011;SDS011;1009;51.436;6.972;2023-10-19T06:19:03;1.90;;;1.70;;
2011;SDS011;1009;51.436;6.972;2023-10-19T06:21:31;1.57;;;1.20;;
2011;SDS011;1009;51.436;6.972;2023-10-19T06:23:58;2.37;;;1.53;;
2011;SDS011;1009;51.436;6.972;2023-10-19T06:26:25;1.50;;;1.30;;
2011;SDS011;1009;51.436;6.972;2023-10-19T06:28:52;1.50;;;1.30;;
2011;SDS011;1009;51.436;6.972;2023-10-19T06:31:24;2.43;;;1.13;;
2011;SDS011;1009;51.436;6.972;2023-10-19T06:33:53;5.63;;;1.13;;
2011;SDS011;1009;51.436;6.972;2023-10-19T06:36:20;2.07;;;1.20;;
2011;SDS011;1009;51.436;6.972;2023-10-19T06:38:46;1.97;;;1.33;;
2011;SDS011;1009;51.436;6.972;2023-10-19T06:41:16;3.67;;;1.30;;
2011;SDS011;1009;51.436;6.972;2023-10-19T06:43:43;2.33;;;1.30;;
2011;SDS011;1009;51.436;6.972;2023-10-19T06:46:10;3.03;;;1.00;;
2011;SDS011;1009;51.436;6.972;2023-10-19T06:48:38;3.77;;;1.30;;
2011;SDS011;1009;51.436;6.972;2023-10-19T06:51:05;4.93;;;1.70;;
2011;SDS011;1009;51.436;6.972;2023-10-19T06:53:32;1.90;;;1.50;;
2011;SDS011;1009;51.436;6.972;2023-10-19T06:55:59;3.90;;;1.60;;
2011;SDS011;1009;51.436;6.972;2023-10-19T06:58:26;4.07;;;1.20;;
2011;SDS011;1009;51.436;6.972;2023-10-19T07:00:52;2.43;;;1.40;;
2011;SDS011;1009;51.436;6.972;2023-10-19T07:03:25;3.43;;;1.30;;
2011;SDS011;1009;51.436;6.972;2023-10-19T07:05:55;1.57;;;1.03;;
2011;SDS011;1009;51.436;6.972;2023-10-19T07:08:23;2.10;;;1.23;;
2011;SDS011;1009;51.436;6.972;2023-10-19T07:10:52;9.43;;;1.53;;
2011;SDS011;1009;51.436;6.972;2023-10-19T07:13:19;1.50;;;1.13;;
2011;SDS011;1009;51.436;6.972;2023-10-19T07:15:46;2.67;;;1.50;;
2011;SDS011;1009;51.436;6.972;2023-10-19T07:18:14;4.23;;;1.90;;
2011;SDS011;1009;51.436;6.972;2023-10-19T07:20:40;3.27;;;1.70;;
2011;SDS011;1009;51.436;6.972;2023-10-19T07:23:09;1.60;;;1.43;;
2011;SDS011;1009;51.436;6.972;2023-10-19T07:25:43;1.90;;;1.50;;
2011;SDS011;1009;51.436;6.972;2023-10-19T07:28:11;3.13;;;2.40;;
2011;SDS011;1009;51.436;6.972;2023-10-19T07:30:39;4.10;;;1.63;;
2011;SDS011;1009;51.436;6.972;2023-10-19T07:33:06;2.60;;;1.70;;
2011;SDS011;1009;51.436;6.972;2023-10-19T07:35:35;2.13;;;1.90;;
2011;SDS011;1009;51.436;6.972;2023-10-19T07:38:03;3.97;;;2.00;;
2011;SDS011;1009;51.436;6.972;2023-10-19T07:40:34;2.10;;;1.37;;
2011;SDS011;1009;51.436;6.972;2023-10-19T07:43:01;3.13;;;1.60;;
2011;SDS011;1009;51.436;6.972;2023-10-19T07:45:29;3.87;;;1.90;;
2011;SDS011;1009;51.436;6.972;2023-10-19T07:47:57;3.50;;;1.23;;
2011;SDS011;1009;51.436;6.972;2023-10-19T07:50:31;3.33;;;1.87;;
2011;SDS011;1009;51.436;6.972;2023-10-19T07:52:58;3.73;;;1.63;;
2011;SDS011;1009;51.436;6.972;2023-10-19T07:55:25;3.90;;;1.43;;
2011;SDS011;1009;51.436;6.972;2023-10-19T07:57:53;2.73;;;1.80;;
2011;SDS011;1009;51.436;6.972;2023-10-19T08:00:21;3.00;;;1.93;;
2011;SDS011;1009;51.436;6.972;2023-10-19T08:02:48;4.37;;;1.50;;
2011;SDS011;1009;51.436;6.972;2023-10-19T08:05:16;4.20;;;1.90;;
2011;SDS011;1009;51.436;6.972;2023-10-19T08:07:44;3.10;;;1.63;;
2011;SDS011;1009;51.436;6.972;2023-10-19T08:10:13;3.00;;;1.60;;
2011;SDS011;1009;51.436;6.972;2023-10-19T08:12:41;2.73;;;1.50;;
2011;SDS011;1009;51.436;6.972;2023-10-19T08:15:11;3.70;;;1.80;;
2011;SDS011;1009;51.436;6.972;2023-10-19T08:17:40;2.80;;;2.10;;
2011;SDS011;1009;51.436;6.972;2023-10-19T08:20:08;5.60;;;1.93;;
2011;SDS011;1009;51.436;6.972;2023-10-19T08:22:41;5.47;;;2.30;;
2011;SDS011;1009;51.436;6.972;2023-10-19T08:25:08;2.40;;;1.50;;
2011;SDS011;1009;51.436;6.972;2023-10-19T08:27:38;1.50;;;1.23;;
2011;SDS011;1009;51.436;6.972;2023-10-19T08:30:06;2.67;;;1.53;;
2011;SDS011;1009;51.436;6.972;2023-10-19T08:32:37;3.30;;;1.80;;
2011;SDS011;1009;51.436;6.972;2023-10-19T08:35:05;2.23;;;1.97;;
2011;SDS011;1009;51.436;6.972;2023-10-19T08:37:33;2.60;;;1.80;;
2011;SDS011;1009;51.436;6.972;2023-10-19T08:40:00;2.87;;;1.57;;
2011;SDS011;1009;51.436;6.972;2023-10-19T08:42:28;2.50;;;1.90;;
2011;SDS011;1009;51.436;6.972;2023-10-19T08:44:55;4.37;;;1.80;;
2011;SDS011;1009;51.436;6.972;2023-10-19T08:47:24;3.87;;;1.80;;
2011;SDS011;1009;51.436;6.972;2023-10-19T08:49:52;3.80;;;1.83;;
2011;SDS011;1009;51.436;6.972;2023-10-19T08:52:19;4.93;;;2.30;;
2011;SDS011;1009;51.436;6.972;2023-10-19T08:54:48;3.30;;;1.70;;
2011;SDS011;1009;51.436;6.972;2023-10-19T08:57:15;4.57;;;1.47;;
2011;SDS011;1009;51.436;6.972;2023-10-19T08:59:43;2.70;;;1.70;;
2011;SDS011;1009;51.436;6.972;2023-10-19T09:02:11;8.70;;;1.50;;
2011;SDS011;1009;51.436;6.972;2023-10-19T09:04:42;5.07;;;1.80;;
2011;SDS011;1009;51.436;6.972;2023-10-19T09:07:11;4.57;;;1.33;;
2011;SDS011;1009;51.436;6.972;2023-10-19T09:09:37;3.70;;;1.33;;
2011;SDS011;1009;51.436;6.972;2023-10-19T09:12:06;4.93;;;1.33;;
2011;SDS011;1009;51.436;6.972;2023-10-19T09:14:35;2.93;;;1.80;;
2011;SDS011;1009;51.436;6.972;2023-10-19T09:17:06;4.53;;;2.20;;
2011;SDS011;1009;51.436;6.972;2023-10-19T09:19:37;3.80;;;1.53;;
2011;SDS011;1009;51.436;6.972;2023-10-19T09:22:05;3.67;;;1.67;;
2011;SDS011;1009;51.436;6.972;2023-10-19T09:24:42;2.87;;;1.93;;
2011;SDS011;1009;51.436;6.972;2023-10-19T09:27:10;1.37;;;1.27;;
2011;SDS011;1009;51.436;6.972;2023-10-19T09:29:38;3.57;;;1.30;;
2011;SDS011;1009;51.436;6.972;2023-10-19T09:32:05;2.40;;;1.17;;
2011;SDS011;1009;51.436;6.972;2023-10-19T09:34:33;2.00;;;1.10;;
2011;SDS011;1009;51.436;6.972;2023-10-19T09:37:02;2.10;;;1.17;;
2011;SDS011;1009;51.436;6.972;2023-10-19T09:39:30;2.77;;;1.60;;
2011;SDS011;1009;51.436;6.972;2023-10-19T09:42:01;4.17;;;1.70;;
2011;SDS011;1009;51.436;6.972;2023-10-19T09:44:32;6.27;;;1.60;;
2011;SDS011;1009;51.436;6.972;2023-10-19T09:47:04;2.40;;;1.40;;
2011;SDS011;1009;51.436;6.972;2023-10-19T09:49:37;4.60;;;1.70;;
2011;SDS011;1009;51.436;6.972;2023-10-19T09:52:04;4.43;;;1.40;;
2011;SDS011;1009;51.436;6.972;2023-10-19T09:54:33;2.30;;;1.17;;
2011;SDS011;1009;51.436;6.972;2023-10-19T09:57:10;1.40;;;1.20;;
2011;SDS011;1009;51.436;6.972;2023-10-19T09:59:43;6.10;;;1.57;;
2011;SDS011;1009;51.436;6.972;2023-10-19T10:02:15;2.43;;;1.83;;
2011;SDS011;1009;51.436;6.972;2023-10-19T10:04:44;5.20;;;1.50;;
2011;SDS011;1009;51.436;6.972;2023-10-19T10:07:12;2.17;;;1.50;;
2011;SDS011;1009;51.436;6.972;2023-10-19T10:09:41;9.50;;;1.70;;
2011;SDS011;1009;51.436;6.972;2023-10-19T10:12:17;4.33;;;1.83;;
2011;SDS011;1009;51.436;6.972;2023-10-19T10:14:53;1.60;;;1.07;;
2011;SDS011;1009;51.436;6.972;2023-10-19T10:17:26;4.40;;;2.00;;
2011;SDS011;1009;51.436;6.972;2023-10-19T10:19:54;2.23;;;1.40;;
2011;SDS011;1009;51.436;6.972;2023-10-19T10:22:24;5.37;;;1.63;;
2011;SDS011;1009;51.436;6.972;2023-10-19T10:24:55;4.80;;;1.47;;
2011;SDS011;1009;51.436;6.972;2023-10-19T10:27:23;4.57;;;1.43;;
2011;SDS011;1009;51.436;6.972;2023-10-19T10:29:54;3.57;;;1.20;;
2011;SDS011;1009;51.436;6.972;2023-10-19T10:38:11;2.87;;;1.30;;
2011;SDS011;1009;51.436;6.972;2023-10-19T10:40:41;3.83;;;1.83;;
2011;SDS011;1009;51.436;6.972;2023-10-19T10:43:10;2.70;;;1.10;;
2011;SDS011;1009;51.436;6.972;2023-10-19T10:45:37;3.20;;;1.10;;
2011;SDS011;1009;51.436;6.972;2023-10-19T10:48:04;4.63;;;1.57;;
2011;SDS011;1009;51.436;6.972;2023-10-19T10:50:38;4.33;;;1.03;;
2011;SDS011;1009;51.436;6.972;2023-10-19T10:53:06;1.87;;;1.10;;
2011;SDS011;1009;51.436;6.972;2023-10-19T10:55:33;4.10;;;1.43;;
2011;SDS011;1009;51.436;6.972;2023-10-19T10:58:00;4.57;;;1.40;;
2011;SDS011;1009;51.436;6.972;2023-10-19T11:00:28;4.77;;;1.40;;
2011;SDS011;1009;51.436;6.972;2023-10-19T11:03:01;2.57;;;1.17;;
2011;SDS011;1009;51.436;6.972;2023-10-19T11:05:30;7.70;;;1.53;;
2011;SDS011;1009;51.436;6.972;2023-10-19T11:08:04;2.57;;;0.90;;
2011;SDS011;1009;51.436;6.972;2023-10-19T11:10:33;2.83;;;1.00;;
2011;SDS011;1009;51.436;6.972;2023-10-19T11:13:01;7.83;;;1.90;;
2011;SDS011;1009;51.436;6.972;2023-10-19T11:15:30;3.37;;;1.47;;
2011;SDS011;1009;51.436;6.972;2023-10-19T11:17:58;4.20;;;1.50;;
2011;SDS011;1009;51.436;6.972;2023-10-19T11:20:25;7.30;;;1.77;;
2011;SDS011;1009;51.436;6.972;2023-10-19T11:22:53;4.50;;;1.33;;
2011;SDS011;1009;51.436;6.972;2023-10-19T11:25:22;2.60;;;1.03;;
2011;SDS011;1009;51.436;6.972;2023-10-19T11:27:53;3.00;;;1.17;;
2011;SDS011;1009;51.436;6.972;2023-10-19T11:30:23;5.47;;;1.40;;
2011;SDS011;1009;51.436;6.972;2023-10-19T11:32:53;6.63;;;1.50;;
2011;SDS011;1009;51.436;6.972;2023-10-19T11:35:23;4.63;;;1.20;;
2011;SDS011;1009;51.436;6.972;2023-10-19T11:37:51;3.10;;;1.03;;
2011;SDS011;1009;51.436;6.972;2023-10-19T11:40:20;3.13;;;1.07;;
2011;SDS011;1009;51.436;6.972;2023-10-19T11:42:47;4.97;;;1.53;;
2011;SDS011;1009;51.436;6.972;2023-10-19T11:45:14;3.13;;;1.10;;
2011;SDS011;1009;51.436;6.972;2023-10-19T11:47:42;4.80;;;1.20;;
2011;SDS011;1009;51.436;6.972;2023-10-19T11:50:11;4.97;;;1.40;;
2011;SDS011;1009;51.436;6.972;2023-10-19T11:52:40;2.30;;;1.80;;
2011;SDS011;1009;51.436;6.972;2023-10-19T11:55:07;3.70;;;1.23;;
2011;SDS011;1009;51.436;6.972;2023-10-19T11:57:34;3.63;;;0.93;;
2011;SDS011;1009;51.436;6.972;2023-10-19T12:00:01;5.70;;;1.50;;
2011;SDS011;1009;51.436;6.972;2023-10-19T12:02:33;6.17;;;1.20;;
2011;SDS011;1009;51.436;6.972;2023-10-19T12:05:02;2.50;;;1.20;;
2011;SDS011;1009;51.436;6.972;2023-10-19T12:07:31;2.83;;;1.10;;
2011;SDS011;1009;51.436;6.972;2023-10-19T12:09:59;4.37;;;1.00;;
2011;SDS011;1009;51.436;6.972;2023-10-19T12:12:25;3.73;;;1.63;;
2011;SDS011;1009;51.436;6.972;2023-10-19T12:14:52;5.13;;;1.30;;
2011;SDS011;1009;51.436;6.972;2023-10-19T12:17:20;2.93;;;1.50;;
2011;SDS011;1009;51.436;6.972;2023-10-19T12:19:51;4.53;;;1.50;;
2011;SDS011;1009;51.436;6.972;2023-10-19T12:22:18;2.70;;;1.20;;
2011;SDS011;1009;51.436;6.972;2023-10-19T12:24:47;4.63;;;1.50;;
2011;SDS011;1009;51.436;6.972;2023-10-19T12:27:14;4.70;;;1.50;;
2011;SDS011;1009;51.436;6.972;2023-10-19T12:29:41;3.93;;;1.27;;
2011;SDS011;1009;51.436;6.972;2023-10-19T12:32:09;3.23;;;1.10;;
2011;SDS011;1009;51.436;6.972;2023-10-19T12:34:39;3.07;;;1.37;;
2011;SDS011;1009;51.436;6.972;2023-10-19T12:37:06;5.37;;;1.50;;
2011;SDS011;1009;51.436;6.972;2023-10-19T12:39:35;3.90;;;1.03;;
2011;SDS011;1009;51.436;6.972;2023-10-19T12:42:09;2.07;;;1.20;;
2011;SDS011;1009;51.436;6.972;2023-10-19T12:44:36;5.13;;;1.10;;
2011;SDS011;1009;51.436;6.972;2023-10-19T12:47:06;1.43;;;0.80;;
2011;SDS011;1009;51.436;6.972;2023-10-19T12:49:35;3.30;;;1.10;;
2011;SDS011;1009;51.436;6.972;2023-10-19T12:52:02;4.50;;;1.63;;
2011;SDS011;1009;51.436;6.972;2023-10-19T12:54:32;3.10;;;0.90;;
2011;SDS011;1009;51.436;6.972;2023-10-19T12:56:59;3.00;;;1.30;;
2011;SDS011;1009;51.436;6.972;2023-10-19T12:59:30;3.93;;;1.53;;
2011;SDS011;1009;51.436;6.972;2023-10-19T13:01:56;4.30;;;1.20;;
2011;SDS011;1009;51.436;6.972;2023-10-19T13:04:24;1.83;;;1.10;;
2011;SDS011;1009;51.436;6.972;2023-10-19T13:06:51;2.40;;;1.30;;
2011;SDS011;1009;51.436;6.972;2023-10-19T13:09:22;6.07;;;1.40;;
2011;SDS011;1009;51.436;6.972;2023-10-19T13:11:55;3.03;;;1.00;;
2011;SDS011;1009;51.436;6.972;2023-10-19T13:14:23;4.40;;;1.40;;
2011;SDS011;1009;51.436;6.972;2023-10-19T13:16:51;2.10;;;1.30;;
2011;SDS011;1009;51.436;6.972;2023-10-19T13:19:19;2.13;;;1.10;;
2011;SDS011;1009;51.436;6.972;2023-10-19T13:21:49;5.40;;;0.97;;
2011;SDS011;1009;51.436;6.972;2023-10-19T13:24:17;3.93;;;1.20;;
2011;SDS011;1009;51.436;6.972;2023-10-19T13:26:45;3.43;;;2.00;;
2011;SDS011;1009;51.436;6.972;2023-10-19T13:29:13;8.00;;;1.40;;
2011;SDS011;1009;51.436;6.972;2023-10-19T13:31:42;8.60;;;2.20;;
2011;SDS011;1009;51.436;6.972;2023-10-19T13:34:15;1.80;;;1.30;;
2011;SDS011;1009;51.436;6.972;2023-10-19T13:36:42;2.30;;;1.50;;
2011;SDS011;1009;51.436;6.972;2023-10-19T13:39:10;4.00;;;1.50;;
2011;SDS011;1009;51.436;6.972;2023-10-19T13:41:41;5.00;;;1.20;;
2011;SDS011;1009;51.436;6.972;2023-10-19T13:44:08;2.70;;;1.40;;
2011;SDS011;1009;51.436;6.972;2023-10-19T13:46:36;4.23;;;2.00;;
2011;SDS011;1009;51.436;6.972;2023-10-19T13:49:03;3.63;;;1.20;;
2011;SDS011;1009;51.436;6.972;2023-10-19T13:51:32;4.73;;;1.10;;
2011;SDS011;1009;51.436;6.972;2023-10-19T13:53:59;5.30;;;1.60;;
2011;SDS011;1009;51.436;6.972;2023-10-19T13:56:26;4.10;;;1.80;;
2011;SDS011;1009;51.436;6.972;2023-10-19T13:58:53;2.83;;;1.13;;
2011;SDS011;1009;51.436;6.972;2023-10-19T14:01:20;2.93;;;1.30;;
2011;SDS011;1009;51.436;6.972;2023-10-19T14:03:50;4.27;;;1.77;;
2011;SDS011;1009;51.436;6.972;2023-10-19T14:06:20;3.70;;;1.20;;
2011;SDS011;1009;51.436;6.972;2023-10-19T14:08:48;3.73;;;1.40;;
2011;SDS011;1009;51.436;6.972;2023-10-19T14:11:15;5.13;;;1.73;;
2011;SDS011;1009;51.436;6.972;2023-10-19T14:13:42;8.07;;;1.60;;
2011;SDS011;1009;51.436;6.972;2023-10-19T14:16:10;4.70;;;1.60;;
2011;SDS011;1009;51.436;6.972;2023-10-19T14:18:37;3.20;;;1.33;;
2011;SDS011;1009;51.436;6.972;2023-10-19T14:21:10;5.60;;;1.50;;
2011;SDS011;1009;51.436;6.972;2023-10-19T14:23:37;6.03;;;1.80;;
2011;SDS011;1009;51.436;6.972;2023-10-19T14:26:06;4.97;;;1.70;;
2011;SDS011;1009;51.436;6.972;2023-10-19T14:28:34;3.40;;;1.17;;
2011;SDS011;1009;51.436;6.972;2023-10-19T14:31:01;5.70;;;1.50;;
2011;SDS011;1009;51.436;6.972;2023-10-19T14:33:29;6.30;;;1.57;;
2011;SDS011;1009;51.436;6.972;2023-10-19T14:35:55;4.00;;;1.30;;
2011;SDS011;1009;51.436;6.972;2023-10-19T14:38:22;4.63;;;1.40;;
2011;SDS011;1009;51.436;6.972;2023-10-19T14:40:50;3.03;;;1.50;;
2011;SDS011;1009;51.436;6.972;2023-10-19T14:43:19;4.10;;;1.37;;
2011;SDS011;1009;51.436;6.972;2023-10-19T14:45:46;4.43;;;1.50;;
2011;SDS011;1009;51.436;6.972;2023-10-19T14:48:13;4.77;;;1.30;;
2011;SDS011;1009;51.436;6.972;2023-10-19T14:50:42;2.17;;;1.43;;
2011;SDS011;1009;51.436;6.972;2023-10-19T14:53:10;4.03;;;1.80;;
2011;SDS011;1009;51.436;6.972;2023-10-19T14:55:37;4.10;;;2.20;;
2011;SDS011;1009;51.436;6.972;2023-10-19T14:58:04;2.70;;;1.63;;
2011;SDS011;1009;51.436;6.972;2023-10-19T15:00:33;4.53;;;1.80;;
2011;SDS011;1009;51.436;6.972;2023-10-19T15:03:02;4.10;;;1.37;;
2011;SDS011;1009;51.436;6.972;2023-10-19T15:05:32;3.27;;;1.97;;
2011;SDS011;1009;51.436;6.972;2023-10-19T15:08:01;6.87;;;2.10;;
2011;SDS011;1009;51.436;6.972;2023-10-19T15:10:29;3.40;;;1.33;;
2011;SDS011;1009;51.436;6.972;2023-10-19T15:12:57;3.90;;;1.40;;
2011;SDS011;1009;51.436;6.972;2023-10-19T15:15:24;5.60;;;1.77;;
2011;SDS011;1009;51.436;6.972;2023-10-19T15:17:53;7.37;;;1.93;;
2011;SDS011;1009;51.436;6.972;2023-10-19T15:20:21;5.00;;;1.97;;
2011;SDS011;1009;51.436;6.972;2023-10-19T15:22:50;4.80;;;1.70;;
2011;SDS011;1009;51.436;6.972;2023-10-19T15:25:18;3.13;;;1.40;;
2011;SDS011;1009;51.436;6.972;2023-10-19T15:27:46;5.70;;;2.03;;
2011;SDS011;1009;51.436;6.972;2023-10-19T15:30:14;9.07;;;1.60;;